<?xml version="1.0" encoding="UTF-8" standalone="no" ?>
<gpx xmlns="http://www.topografix.com/GPX/1/1" xmlns:xsi="http://www.w3.org/2001/XMLSchema-instance" xsi:schemaLocation="http://www.topografix.com/GPX/1/1 http://www.topografix.com/GPX/1/1/gpx.xsd" version="1.1" creator="VisuGPX - https://www.visugpx.com">
  <metadata>
    <name>SOIGNOLLES-EN-BRIE</name>
    <desc><![CDATA[Soignolles-en-Brie avec Harvey]]></desc>
  </metadata>
  <trk>
    <name><![CDATA[--Soignolles-en-Brie-- OR-5636501:Soignolles-en-Brie]]></name>
    <trkseg>
      <trkpt lat="48.65209" lon="2.69961">
        <ele>67</ele>
        <time>2016-01-20T10:04:04Z</time>
      </trkpt>
      <trkpt lat="48.65228" lon="2.69956">
        <ele>67</ele>
        <time>2016-01-20T10:06:04Z</time>
      </trkpt>
      <trkpt lat="48.6524" lon="2.69953">
        <ele>66</ele>
        <time>2016-01-20T10:08:04Z</time>
      </trkpt>
      <trkpt lat="48.65247" lon="2.69952">
        <ele>66</ele>
        <time>2016-01-20T10:10:04Z</time>
      </trkpt>
      <trkpt lat="48.65258" lon="2.69955">
        <ele>66</ele>
        <time>2016-01-20T10:12:04Z</time>
      </trkpt>
      <trkpt lat="48.65266" lon="2.69938">
        <ele>66</ele>
        <time>2016-01-20T10:14:04Z</time>
      </trkpt>
      <trkpt lat="48.65275" lon="2.69927">
        <ele>66</ele>
        <time>2016-01-20T10:16:04Z</time>
      </trkpt>
      <trkpt lat="48.65285" lon="2.69917">
        <ele>66</ele>
        <time>2016-01-20T10:18:04Z</time>
      </trkpt>
      <trkpt lat="48.65299" lon="2.69908">
        <ele>66</ele>
        <time>2016-01-20T10:20:04Z</time>
      </trkpt>
      <trkpt lat="48.65311" lon="2.69905">
        <ele>66</ele>
        <time>2016-01-20T10:22:04Z</time>
      </trkpt>
      <trkpt lat="48.65325" lon="2.69903">
        <ele>66</ele>
        <time>2016-01-20T10:24:04Z</time>
      </trkpt>
      <trkpt lat="48.65337" lon="2.699">
        <ele>66</ele>
        <time>2016-01-20T10:26:04Z</time>
      </trkpt>
      <trkpt lat="48.65356" lon="2.69901">
        <ele>65</ele>
        <time>2016-01-20T10:28:04Z</time>
      </trkpt>
      <trkpt lat="48.65356" lon="2.69916">
        <ele>65</ele>
        <time>2016-01-20T10:30:04Z</time>
      </trkpt>
      <trkpt lat="48.6535" lon="2.69937">
        <ele>65</ele>
        <time>2016-01-20T10:32:04Z</time>
      </trkpt>
      <trkpt lat="48.65345" lon="2.69954">
        <ele>65</ele>
        <time>2016-01-20T10:34:04Z</time>
      </trkpt>
      <trkpt lat="48.6534" lon="2.69973">
        <ele>65</ele>
        <time>2016-01-20T10:36:04Z</time>
      </trkpt>
      <trkpt lat="48.65338" lon="2.69992">
        <ele>65</ele>
        <time>2016-01-20T10:38:04Z</time>
      </trkpt>
      <trkpt lat="48.65336" lon="2.70007">
        <ele>65</ele>
        <time>2016-01-20T10:40:04Z</time>
      </trkpt>
      <trkpt lat="48.65337" lon="2.70019">
        <ele>64</ele>
        <time>2016-01-20T10:42:04Z</time>
      </trkpt>
      <trkpt lat="48.6534" lon="2.70028">
        <ele>64</ele>
        <time>2016-01-20T10:44:04Z</time>
      </trkpt>
      <trkpt lat="48.65338" lon="2.70039">
        <ele>64</ele>
        <time>2016-01-20T10:46:04Z</time>
      </trkpt>
      <trkpt lat="48.65336" lon="2.70046">
        <ele>64</ele>
        <time>2016-01-20T10:48:04Z</time>
      </trkpt>
      <trkpt lat="48.65336" lon="2.7007">
        <ele>63</ele>
        <time>2016-01-20T10:50:04Z</time>
      </trkpt>
      <trkpt lat="48.65337" lon="2.70089">
        <ele>63</ele>
        <time>2016-01-20T10:52:04Z</time>
      </trkpt>
      <trkpt lat="48.65338" lon="2.701">
        <ele>62</ele>
        <time>2016-01-20T10:54:04Z</time>
      </trkpt>
      <trkpt lat="48.65333" lon="2.70114">
        <ele>62</ele>
        <time>2016-01-20T10:56:04Z</time>
      </trkpt>
      <trkpt lat="48.65328" lon="2.70126">
        <ele>62</ele>
        <time>2016-01-20T10:58:04Z</time>
      </trkpt>
      <trkpt lat="48.65317" lon="2.70132">
        <ele>61</ele>
        <time>2016-01-20T11:00:04Z</time>
      </trkpt>
      <trkpt lat="48.65302" lon="2.7013">
        <ele>62</ele>
        <time>2016-01-20T11:02:04Z</time>
      </trkpt>
      <trkpt lat="48.65289" lon="2.70128">
        <ele>62</ele>
        <time>2016-01-20T11:04:04Z</time>
      </trkpt>
      <trkpt lat="48.65276" lon="2.70128">
        <ele>62</ele>
        <time>2016-01-20T11:06:04Z</time>
      </trkpt>
      <trkpt lat="48.65267" lon="2.70133">
        <ele>62</ele>
        <time>2016-01-20T11:08:04Z</time>
      </trkpt>
      <trkpt lat="48.65256" lon="2.7014">
        <ele>62</ele>
        <time>2016-01-20T11:10:04Z</time>
      </trkpt>
      <trkpt lat="48.65247" lon="2.70148">
        <ele>62</ele>
        <time>2016-01-20T11:12:04Z</time>
      </trkpt>
      <trkpt lat="48.65238" lon="2.70171">
        <ele>61</ele>
        <time>2016-01-20T11:14:04Z</time>
      </trkpt>
      <trkpt lat="48.65227" lon="2.70203">
        <ele>61</ele>
        <time>2016-01-20T11:16:04Z</time>
      </trkpt>
      <trkpt lat="48.65218" lon="2.70236">
        <ele>61</ele>
        <time>2016-01-20T11:18:04Z</time>
      </trkpt>
      <trkpt lat="48.65206" lon="2.70222">
        <ele>61</ele>
        <time>2016-01-20T11:20:04Z</time>
      </trkpt>
      <trkpt lat="48.65196" lon="2.70221">
        <ele>61</ele>
        <time>2016-01-20T11:22:04Z</time>
      </trkpt>
      <trkpt lat="48.65186" lon="2.70225">
        <ele>60</ele>
        <time>2016-01-20T11:24:04Z</time>
      </trkpt>
      <trkpt lat="48.65178" lon="2.70226">
        <ele>60</ele>
        <time>2016-01-20T11:26:04Z</time>
      </trkpt>
      <trkpt lat="48.65171" lon="2.70234">
        <ele>60</ele>
        <time>2016-01-20T11:28:04Z</time>
      </trkpt>
      <trkpt lat="48.65164" lon="2.7027">
        <ele>61</ele>
        <time>2016-01-20T11:30:04Z</time>
      </trkpt>
      <trkpt lat="48.65157" lon="2.70268">
        <ele>61</ele>
        <time>2016-01-20T11:32:04Z</time>
      </trkpt>
      <trkpt lat="48.65147" lon="2.70274">
        <ele>61</ele>
        <time>2016-01-20T11:34:04Z</time>
      </trkpt>
      <trkpt lat="48.65133" lon="2.70285">
        <ele>61</ele>
        <time>2016-01-20T11:36:04Z</time>
      </trkpt>
      <trkpt lat="48.65118" lon="2.70291">
        <ele>62</ele>
        <time>2016-01-20T11:38:04Z</time>
      </trkpt>
      <trkpt lat="48.65102" lon="2.70303">
        <ele>62</ele>
        <time>2016-01-20T11:40:04Z</time>
      </trkpt>
      <trkpt lat="48.6509" lon="2.70311">
        <ele>63</ele>
        <time>2016-01-20T11:42:04Z</time>
      </trkpt>
      <trkpt lat="48.65073" lon="2.70328">
        <ele>63</ele>
        <time>2016-01-20T11:44:04Z</time>
      </trkpt>
      <trkpt lat="48.65061" lon="2.70337">
        <ele>63</ele>
        <time>2016-01-20T11:46:04Z</time>
      </trkpt>
      <trkpt lat="48.65036" lon="2.70363">
        <ele>62</ele>
        <time>2016-01-20T11:48:04Z</time>
      </trkpt>
      <trkpt lat="48.65026" lon="2.70373">
        <ele>62</ele>
        <time>2016-01-20T11:50:04Z</time>
      </trkpt>
      <trkpt lat="48.65011" lon="2.7039">
        <ele>61</ele>
        <time>2016-01-20T11:52:04Z</time>
      </trkpt>
      <trkpt lat="48.65002" lon="2.70398">
        <ele>61</ele>
        <time>2016-01-20T11:54:04Z</time>
      </trkpt>
      <trkpt lat="48.64993" lon="2.7041">
        <ele>61</ele>
        <time>2016-01-20T11:56:04Z</time>
      </trkpt>
      <trkpt lat="48.64982" lon="2.70429">
        <ele>61</ele>
        <time>2016-01-20T11:58:04Z</time>
      </trkpt>
      <trkpt lat="48.64973" lon="2.70449">
        <ele>61</ele>
        <time>2016-01-20T12:00:04Z</time>
      </trkpt>
      <trkpt lat="48.64959" lon="2.70482">
        <ele>62</ele>
        <time>2016-01-20T12:02:04Z</time>
      </trkpt>
      <trkpt lat="48.6495" lon="2.70511">
        <ele>62</ele>
        <time>2016-01-20T12:04:04Z</time>
      </trkpt>
      <trkpt lat="48.64941" lon="2.70545">
        <ele>63</ele>
        <time>2016-01-20T12:06:04Z</time>
      </trkpt>
      <trkpt lat="48.64935" lon="2.70564">
        <ele>64</ele>
        <time>2016-01-20T12:08:04Z</time>
      </trkpt>
      <trkpt lat="48.64911" lon="2.70609">
        <ele>64</ele>
        <time>2016-01-20T12:10:04Z</time>
      </trkpt>
      <trkpt lat="48.64894" lon="2.70648">
        <ele>64</ele>
        <time>2016-01-20T12:12:04Z</time>
      </trkpt>
      <trkpt lat="48.64874" lon="2.70686">
        <ele>65</ele>
        <time>2016-01-20T12:14:04Z</time>
      </trkpt>
      <trkpt lat="48.64864" lon="2.70707">
        <ele>65</ele>
        <time>2016-01-20T12:16:04Z</time>
      </trkpt>
      <trkpt lat="48.64854" lon="2.70725">
        <ele>65</ele>
        <time>2016-01-20T12:18:04Z</time>
      </trkpt>
      <trkpt lat="48.6485" lon="2.70734">
        <ele>66</ele>
        <time>2016-01-20T12:20:04Z</time>
      </trkpt>
      <trkpt lat="48.64847" lon="2.70755">
        <ele>66</ele>
        <time>2016-01-20T12:22:04Z</time>
      </trkpt>
      <trkpt lat="48.64838" lon="2.70765">
        <ele>67</ele>
        <time>2016-01-20T12:24:04Z</time>
      </trkpt>
      <trkpt lat="48.64828" lon="2.70778">
        <ele>67</ele>
        <time>2016-01-20T12:26:04Z</time>
      </trkpt>
      <trkpt lat="48.64816" lon="2.70796">
        <ele>67</ele>
        <time>2016-01-20T12:28:04Z</time>
      </trkpt>
      <trkpt lat="48.64801" lon="2.70813">
        <ele>68</ele>
        <time>2016-01-20T12:30:04Z</time>
      </trkpt>
      <trkpt lat="48.64786" lon="2.70832">
        <ele>68</ele>
        <time>2016-01-20T12:32:04Z</time>
      </trkpt>
      <trkpt lat="48.64774" lon="2.70841">
        <ele>68</ele>
        <time>2016-01-20T12:34:04Z</time>
      </trkpt>
      <trkpt lat="48.64757" lon="2.70854">
        <ele>68</ele>
        <time>2016-01-20T12:36:04Z</time>
      </trkpt>
      <trkpt lat="48.64734" lon="2.70869">
        <ele>67</ele>
        <time>2016-01-20T12:38:04Z</time>
      </trkpt>
      <trkpt lat="48.64715" lon="2.70876">
        <ele>67</ele>
        <time>2016-01-20T12:40:04Z</time>
      </trkpt>
      <trkpt lat="48.64702" lon="2.70881">
        <ele>67</ele>
        <time>2016-01-20T12:42:04Z</time>
      </trkpt>
      <trkpt lat="48.64682" lon="2.70894">
        <ele>67</ele>
        <time>2016-01-20T12:44:04Z</time>
      </trkpt>
      <trkpt lat="48.64668" lon="2.70905">
        <ele>67</ele>
        <time>2016-01-20T12:46:04Z</time>
      </trkpt>
      <trkpt lat="48.64649" lon="2.70922">
        <ele>67</ele>
        <time>2016-01-20T12:48:04Z</time>
      </trkpt>
      <trkpt lat="48.64616" lon="2.70952">
        <ele>66</ele>
        <time>2016-01-20T12:50:04Z</time>
      </trkpt>
      <trkpt lat="48.6458" lon="2.7099">
        <ele>65</ele>
        <time>2016-01-20T12:52:04Z</time>
      </trkpt>
      <trkpt lat="48.64559" lon="2.71008">
        <ele>64</ele>
        <time>2016-01-20T12:54:04Z</time>
      </trkpt>
      <trkpt lat="48.64534" lon="2.71034">
        <ele>63</ele>
        <time>2016-01-20T12:56:04Z</time>
      </trkpt>
      <trkpt lat="48.64513" lon="2.71049">
        <ele>63</ele>
        <time>2016-01-20T12:58:04Z</time>
      </trkpt>
      <trkpt lat="48.64488" lon="2.71058">
        <ele>62</ele>
        <time>2016-01-20T13:00:04Z</time>
      </trkpt>
      <trkpt lat="48.64459" lon="2.71069">
        <ele>62</ele>
        <time>2016-01-20T13:02:04Z</time>
      </trkpt>
      <trkpt lat="48.64431" lon="2.71079">
        <ele>61</ele>
        <time>2016-01-20T13:04:04Z</time>
      </trkpt>
      <trkpt lat="48.64422" lon="2.71086">
        <ele>61</ele>
        <time>2016-01-20T13:06:04Z</time>
      </trkpt>
      <trkpt lat="48.64409" lon="2.71092">
        <ele>62</ele>
        <time>2016-01-20T13:08:04Z</time>
      </trkpt>
      <trkpt lat="48.64395" lon="2.71097">
        <ele>64</ele>
        <time>2016-01-20T13:10:04Z</time>
      </trkpt>
      <trkpt lat="48.64386" lon="2.71097">
        <ele>66</ele>
        <time>2016-01-20T13:12:04Z</time>
      </trkpt>
      <trkpt lat="48.64377" lon="2.71094">
        <ele>67</ele>
        <time>2016-01-20T13:14:04Z</time>
      </trkpt>
      <trkpt lat="48.64364" lon="2.71098">
        <ele>69</ele>
        <time>2016-01-20T13:16:04Z</time>
      </trkpt>
      <trkpt lat="48.64357" lon="2.71108">
        <ele>70</ele>
        <time>2016-01-20T13:18:04Z</time>
      </trkpt>
      <trkpt lat="48.64323" lon="2.71247">
        <ele>76</ele>
        <time>2016-01-20T13:20:04Z</time>
      </trkpt>
      <trkpt lat="48.64331" lon="2.71276">
        <ele>76</ele>
        <time>2016-01-20T13:22:04Z</time>
      </trkpt>
      <trkpt lat="48.64342" lon="2.7131">
        <ele>77</ele>
        <time>2016-01-20T13:24:04Z</time>
      </trkpt>
      <trkpt lat="48.64362" lon="2.71349">
        <ele>78</ele>
        <time>2016-01-20T13:26:04Z</time>
      </trkpt>
      <trkpt lat="48.64381" lon="2.71399">
        <ele>80</ele>
        <time>2016-01-20T13:28:04Z</time>
      </trkpt>
      <trkpt lat="48.644" lon="2.71444">
        <ele>81</ele>
        <time>2016-01-20T13:30:04Z</time>
      </trkpt>
      <trkpt lat="48.64419" lon="2.71495">
        <ele>82</ele>
        <time>2016-01-20T13:32:04Z</time>
      </trkpt>
      <trkpt lat="48.64432" lon="2.71496">
        <ele>81</ele>
        <time>2016-01-20T13:34:04Z</time>
      </trkpt>
      <trkpt lat="48.64446" lon="2.71498">
        <ele>80</ele>
        <time>2016-01-20T13:36:04Z</time>
      </trkpt>
      <trkpt lat="48.64457" lon="2.71504">
        <ele>80</ele>
        <time>2016-01-20T13:38:04Z</time>
      </trkpt>
      <trkpt lat="48.64463" lon="2.71506">
        <ele>80</ele>
        <time>2016-01-20T13:40:04Z</time>
      </trkpt>
      <trkpt lat="48.64468" lon="2.71502">
        <ele>79</ele>
        <time>2016-01-20T13:42:04Z</time>
      </trkpt>
      <trkpt lat="48.64474" lon="2.715">
        <ele>79</ele>
        <time>2016-01-20T13:44:04Z</time>
      </trkpt>
      <trkpt lat="48.64482" lon="2.71509">
        <ele>79</ele>
        <time>2016-01-20T13:46:04Z</time>
      </trkpt>
      <trkpt lat="48.64492" lon="2.7151">
        <ele>78</ele>
        <time>2016-01-20T13:48:04Z</time>
      </trkpt>
      <trkpt lat="48.64508" lon="2.71491">
        <ele>76</ele>
        <time>2016-01-20T13:50:04Z</time>
      </trkpt>
      <trkpt lat="48.6454" lon="2.71514">
        <ele>72</ele>
        <time>2016-01-20T13:52:04Z</time>
      </trkpt>
      <trkpt lat="48.6456" lon="2.7149">
        <ele>69</ele>
        <time>2016-01-20T13:54:04Z</time>
      </trkpt>
      <trkpt lat="48.64578" lon="2.71484">
        <ele>66</ele>
        <time>2016-01-20T13:56:04Z</time>
      </trkpt>
      <trkpt lat="48.64595" lon="2.71478">
        <ele>65</ele>
        <time>2016-01-20T13:58:04Z</time>
      </trkpt>
      <trkpt lat="48.64603" lon="2.71483">
        <ele>65</ele>
        <time>2016-01-20T14:00:04Z</time>
      </trkpt>
      <trkpt lat="48.64618" lon="2.71498">
        <ele>64</ele>
        <time>2016-01-20T14:02:04Z</time>
      </trkpt>
      <trkpt lat="48.64636" lon="2.7152">
        <ele>64</ele>
        <time>2016-01-20T14:04:04Z</time>
      </trkpt>
      <trkpt lat="48.64649" lon="2.71534">
        <ele>63</ele>
        <time>2016-01-20T14:06:04Z</time>
      </trkpt>
      <trkpt lat="48.64646" lon="2.7155">
        <ele>64</ele>
        <time>2016-01-20T14:08:04Z</time>
      </trkpt>
      <trkpt lat="48.6464" lon="2.71568">
        <ele>64</ele>
        <time>2016-01-20T14:10:04Z</time>
      </trkpt>
      <trkpt lat="48.6463" lon="2.71582">
        <ele>65</ele>
        <time>2016-01-20T14:12:04Z</time>
      </trkpt>
      <trkpt lat="48.6462" lon="2.71595">
        <ele>66</ele>
        <time>2016-01-20T14:14:04Z</time>
      </trkpt>
      <trkpt lat="48.64593" lon="2.71631">
        <ele>69</ele>
        <time>2016-01-20T14:16:04Z</time>
      </trkpt>
      <trkpt lat="48.6457" lon="2.7166">
        <ele>73</ele>
        <time>2016-01-20T14:18:04Z</time>
      </trkpt>
      <trkpt lat="48.64552" lon="2.71682">
        <ele>76</ele>
        <time>2016-01-20T14:20:04Z</time>
      </trkpt>
      <trkpt lat="48.64675" lon="2.71713">
        <ele>65</ele>
        <time>2016-01-20T14:22:04Z</time>
      </trkpt>
      <trkpt lat="48.64816" lon="2.71743">
        <ele>66</ele>
        <time>2016-01-20T14:24:04Z</time>
      </trkpt>
      <trkpt lat="48.64856" lon="2.71768">
        <ele>67</ele>
        <time>2016-01-20T14:26:04Z</time>
      </trkpt>
      <trkpt lat="48.64856" lon="2.71776">
        <ele>67</ele>
        <time>2016-01-20T14:28:04Z</time>
      </trkpt>
      <trkpt lat="48.64848" lon="2.71794">
        <ele>68</ele>
        <time>2016-01-20T14:30:04Z</time>
      </trkpt>
      <trkpt lat="48.64841" lon="2.71799">
        <ele>68</ele>
        <time>2016-01-20T14:32:04Z</time>
      </trkpt>
      <trkpt lat="48.64832" lon="2.71804">
        <ele>69</ele>
        <time>2016-01-20T14:34:04Z</time>
      </trkpt>
      <trkpt lat="48.64753" lon="2.72041">
        <ele>75</ele>
        <time>2016-01-20T14:36:04Z</time>
      </trkpt>
      <trkpt lat="48.64735" lon="2.72092">
        <ele>76</ele>
        <time>2016-01-20T14:38:04Z</time>
      </trkpt>
      <trkpt lat="48.64648" lon="2.72365">
        <ele>81</ele>
        <time>2016-01-20T14:40:04Z</time>
      </trkpt>
      <trkpt lat="48.64597" lon="2.72521">
        <ele>84</ele>
        <time>2016-01-20T14:42:04Z</time>
      </trkpt>
      <trkpt lat="48.64554" lon="2.72658">
        <ele>84</ele>
        <time>2016-01-20T14:44:04Z</time>
      </trkpt>
      <trkpt lat="48.64453" lon="2.72969">
        <ele>79</ele>
        <time>2016-01-20T14:46:04Z</time>
      </trkpt>
      <trkpt lat="48.64411" lon="2.73102">
        <ele>75</ele>
        <time>2016-01-20T14:48:04Z</time>
      </trkpt>
      <trkpt lat="48.64392" lon="2.7317">
        <ele>76</ele>
        <time>2016-01-20T14:50:04Z</time>
      </trkpt>
      <trkpt lat="48.64377" lon="2.73222">
        <ele>78</ele>
        <time>2016-01-20T14:52:04Z</time>
      </trkpt>
      <trkpt lat="48.64367" lon="2.73264">
        <ele>80</ele>
        <time>2016-01-20T14:54:04Z</time>
      </trkpt>
      <trkpt lat="48.64355" lon="2.73328">
        <ele>81</ele>
        <time>2016-01-20T14:56:04Z</time>
      </trkpt>
      <trkpt lat="48.64347" lon="2.73369">
        <ele>81</ele>
        <time>2016-01-20T14:58:04Z</time>
      </trkpt>
      <trkpt lat="48.64343" lon="2.73389">
        <ele>81</ele>
        <time>2016-01-20T15:00:04Z</time>
      </trkpt>
      <trkpt lat="48.64342" lon="2.73406">
        <ele>80</ele>
        <time>2016-01-20T15:02:04Z</time>
      </trkpt>
      <trkpt lat="48.64351" lon="2.73419">
        <ele>79</ele>
        <time>2016-01-20T15:04:04Z</time>
      </trkpt>
      <trkpt lat="48.64362" lon="2.7343">
        <ele>77</ele>
        <time>2016-01-20T15:06:04Z</time>
      </trkpt>
      <trkpt lat="48.64378" lon="2.73441">
        <ele>76</ele>
        <time>2016-01-20T15:08:04Z</time>
      </trkpt>
      <trkpt lat="48.6439" lon="2.73443">
        <ele>74</ele>
        <time>2016-01-20T15:10:04Z</time>
      </trkpt>
      <trkpt lat="48.64418" lon="2.73438">
        <ele>71</ele>
        <time>2016-01-20T15:12:04Z</time>
      </trkpt>
      <trkpt lat="48.64457" lon="2.73433">
        <ele>69</ele>
        <time>2016-01-20T15:14:04Z</time>
      </trkpt>
      <trkpt lat="48.64481" lon="2.73431">
        <ele>67</ele>
        <time>2016-01-20T15:16:04Z</time>
      </trkpt>
      <trkpt lat="48.64496" lon="2.73429">
        <ele>66</ele>
        <time>2016-01-20T15:18:04Z</time>
      </trkpt>
      <trkpt lat="48.64523" lon="2.7343">
        <ele>65</ele>
        <time>2016-01-20T15:20:04Z</time>
      </trkpt>
      <trkpt lat="48.64516" lon="2.73404">
        <ele>65</ele>
        <time>2016-01-20T15:22:04Z</time>
      </trkpt>
      <trkpt lat="48.6451" lon="2.73375">
        <ele>65</ele>
        <time>2016-01-20T15:24:04Z</time>
      </trkpt>
      <trkpt lat="48.64508" lon="2.73354">
        <ele>64</ele>
        <time>2016-01-20T15:26:04Z</time>
      </trkpt>
      <trkpt lat="48.64508" lon="2.73322">
        <ele>64</ele>
        <time>2016-01-20T15:28:04Z</time>
      </trkpt>
      <trkpt lat="48.64511" lon="2.73297">
        <ele>64</ele>
        <time>2016-01-20T15:30:04Z</time>
      </trkpt>
      <trkpt lat="48.64515" lon="2.73281">
        <ele>64</ele>
        <time>2016-01-20T15:32:04Z</time>
      </trkpt>
      <trkpt lat="48.64538" lon="2.73228">
        <ele>63</ele>
        <time>2016-01-20T15:34:04Z</time>
      </trkpt>
      <trkpt lat="48.64549" lon="2.73202">
        <ele>62</ele>
        <time>2016-01-20T15:36:04Z</time>
      </trkpt>
      <trkpt lat="48.64555" lon="2.73183">
        <ele>62</ele>
        <time>2016-01-20T15:38:04Z</time>
      </trkpt>
      <trkpt lat="48.64569" lon="2.73132">
        <ele>61</ele>
        <time>2016-01-20T15:40:04Z</time>
      </trkpt>
      <trkpt lat="48.64574" lon="2.731">
        <ele>61</ele>
        <time>2016-01-20T15:42:04Z</time>
      </trkpt>
      <trkpt lat="48.64578" lon="2.73069">
        <ele>61</ele>
        <time>2016-01-20T15:44:04Z</time>
      </trkpt>
      <trkpt lat="48.64578" lon="2.73047">
        <ele>61</ele>
        <time>2016-01-20T15:46:04Z</time>
      </trkpt>
      <trkpt lat="48.64576" lon="2.73037">
        <ele>62</ele>
        <time>2016-01-20T15:48:04Z</time>
      </trkpt>
      <trkpt lat="48.64571" lon="2.73014">
        <ele>63</ele>
        <time>2016-01-20T15:50:04Z</time>
      </trkpt>
      <trkpt lat="48.64565" lon="2.72996">
        <ele>64</ele>
        <time>2016-01-20T15:52:04Z</time>
      </trkpt>
      <trkpt lat="48.64563" lon="2.72986">
        <ele>64</ele>
        <time>2016-01-20T15:54:04Z</time>
      </trkpt>
      <trkpt lat="48.64564" lon="2.72972">
        <ele>64</ele>
        <time>2016-01-20T15:56:04Z</time>
      </trkpt>
      <trkpt lat="48.64568" lon="2.72966">
        <ele>64</ele>
        <time>2016-01-20T15:58:04Z</time>
      </trkpt>
      <trkpt lat="48.64581" lon="2.72955">
        <ele>63</ele>
        <time>2016-01-20T16:00:04Z</time>
      </trkpt>
      <trkpt lat="48.64593" lon="2.72944">
        <ele>63</ele>
        <time>2016-01-20T16:02:04Z</time>
      </trkpt>
      <trkpt lat="48.646" lon="2.72932">
        <ele>63</ele>
        <time>2016-01-20T16:04:04Z</time>
      </trkpt>
      <trkpt lat="48.64604" lon="2.72919">
        <ele>62</ele>
        <time>2016-01-20T16:06:04Z</time>
      </trkpt>
      <trkpt lat="48.64604" lon="2.72904">
        <ele>64</ele>
        <time>2016-01-20T16:08:04Z</time>
      </trkpt>
      <trkpt lat="48.64603" lon="2.72866">
        <ele>67</ele>
        <time>2016-01-20T16:10:04Z</time>
      </trkpt>
      <trkpt lat="48.64601" lon="2.72854">
        <ele>69</ele>
        <time>2016-01-20T16:12:04Z</time>
      </trkpt>
      <trkpt lat="48.64605" lon="2.72825">
        <ele>70</ele>
        <time>2016-01-20T16:14:04Z</time>
      </trkpt>
      <trkpt lat="48.64623" lon="2.72761">
        <ele>72</ele>
        <time>2016-01-20T16:16:04Z</time>
      </trkpt>
      <trkpt lat="48.64633" lon="2.72731">
        <ele>74</ele>
        <time>2016-01-20T16:18:04Z</time>
      </trkpt>
      <trkpt lat="48.64644" lon="2.72719">
        <ele>73</ele>
        <time>2016-01-20T16:20:04Z</time>
      </trkpt>
      <trkpt lat="48.64655" lon="2.72708">
        <ele>73</ele>
        <time>2016-01-20T16:22:04Z</time>
      </trkpt>
      <trkpt lat="48.64667" lon="2.72699">
        <ele>73</ele>
        <time>2016-01-20T16:24:04Z</time>
      </trkpt>
      <trkpt lat="48.64677" lon="2.72696">
        <ele>72</ele>
        <time>2016-01-20T16:26:04Z</time>
      </trkpt>
      <trkpt lat="48.64683" lon="2.7269">
        <ele>72</ele>
        <time>2016-01-20T16:28:04Z</time>
      </trkpt>
      <trkpt lat="48.64689" lon="2.72685">
        <ele>71</ele>
        <time>2016-01-20T16:30:04Z</time>
      </trkpt>
      <trkpt lat="48.64694" lon="2.72673">
        <ele>72</ele>
        <time>2016-01-20T16:32:04Z</time>
      </trkpt>
      <trkpt lat="48.64697" lon="2.72663">
        <ele>72</ele>
        <time>2016-01-20T16:34:04Z</time>
      </trkpt>
      <trkpt lat="48.64699" lon="2.72651">
        <ele>73</ele>
        <time>2016-01-20T16:36:04Z</time>
      </trkpt>
      <trkpt lat="48.64703" lon="2.72634">
        <ele>73</ele>
        <time>2016-01-20T16:38:04Z</time>
      </trkpt>
      <trkpt lat="48.64709" lon="2.72622">
        <ele>73</ele>
        <time>2016-01-20T16:40:04Z</time>
      </trkpt>
      <trkpt lat="48.64723" lon="2.72606">
        <ele>72</ele>
        <time>2016-01-20T16:42:04Z</time>
      </trkpt>
      <trkpt lat="48.64737" lon="2.72586">
        <ele>72</ele>
        <time>2016-01-20T16:44:04Z</time>
      </trkpt>
      <trkpt lat="48.64753" lon="2.72566">
        <ele>72</ele>
        <time>2016-01-20T16:46:04Z</time>
      </trkpt>
      <trkpt lat="48.6477" lon="2.72552">
        <ele>73</ele>
        <time>2016-01-20T16:48:04Z</time>
      </trkpt>
      <trkpt lat="48.64783" lon="2.72543">
        <ele>73</ele>
        <time>2016-01-20T16:50:04Z</time>
      </trkpt>
      <trkpt lat="48.64798" lon="2.72533">
        <ele>73</ele>
        <time>2016-01-20T16:52:04Z</time>
      </trkpt>
      <trkpt lat="48.64815" lon="2.72526">
        <ele>72</ele>
        <time>2016-01-20T16:54:04Z</time>
      </trkpt>
      <trkpt lat="48.64833" lon="2.72521">
        <ele>71</ele>
        <time>2016-01-20T16:56:04Z</time>
      </trkpt>
      <trkpt lat="48.64849" lon="2.72513">
        <ele>72</ele>
        <time>2016-01-20T16:58:04Z</time>
      </trkpt>
      <trkpt lat="48.64867" lon="2.72511">
        <ele>71</ele>
        <time>2016-01-20T17:00:04Z</time>
      </trkpt>
      <trkpt lat="48.64885" lon="2.72506">
        <ele>71</ele>
        <time>2016-01-20T17:02:04Z</time>
      </trkpt>
      <trkpt lat="48.6491" lon="2.725">
        <ele>71</ele>
        <time>2016-01-20T17:04:04Z</time>
      </trkpt>
      <trkpt lat="48.64934" lon="2.72496">
        <ele>70</ele>
        <time>2016-01-20T17:06:04Z</time>
      </trkpt>
      <trkpt lat="48.64963" lon="2.72492">
        <ele>69</ele>
        <time>2016-01-20T17:08:04Z</time>
      </trkpt>
      <trkpt lat="48.64986" lon="2.72492">
        <ele>68</ele>
        <time>2016-01-20T17:10:04Z</time>
      </trkpt>
      <trkpt lat="48.65012" lon="2.72495">
        <ele>67</ele>
        <time>2016-01-20T17:12:04Z</time>
      </trkpt>
      <trkpt lat="48.6506" lon="2.72495">
        <ele>67</ele>
        <time>2016-01-20T17:14:04Z</time>
      </trkpt>
      <trkpt lat="48.65076" lon="2.72496">
        <ele>67</ele>
        <time>2016-01-20T17:16:04Z</time>
      </trkpt>
      <trkpt lat="48.65103" lon="2.72497">
        <ele>67</ele>
        <time>2016-01-20T17:18:04Z</time>
      </trkpt>
      <trkpt lat="48.65124" lon="2.72503">
        <ele>66</ele>
        <time>2016-01-20T17:20:04Z</time>
      </trkpt>
      <trkpt lat="48.65148" lon="2.72507">
        <ele>66</ele>
        <time>2016-01-20T17:22:04Z</time>
      </trkpt>
      <trkpt lat="48.65198" lon="2.72515">
        <ele>65</ele>
        <time>2016-01-20T17:24:04Z</time>
      </trkpt>
      <trkpt lat="48.65216" lon="2.7252">
        <ele>65</ele>
        <time>2016-01-20T17:26:04Z</time>
      </trkpt>
      <trkpt lat="48.65234" lon="2.72528">
        <ele>65</ele>
        <time>2016-01-20T17:28:04Z</time>
      </trkpt>
      <trkpt lat="48.65249" lon="2.72534">
        <ele>65</ele>
        <time>2016-01-20T17:30:04Z</time>
      </trkpt>
      <trkpt lat="48.65264" lon="2.72534">
        <ele>64</ele>
        <time>2016-01-20T17:32:04Z</time>
      </trkpt>
      <trkpt lat="48.65283" lon="2.72533">
        <ele>64</ele>
        <time>2016-01-20T17:34:04Z</time>
      </trkpt>
      <trkpt lat="48.65301" lon="2.7253">
        <ele>64</ele>
        <time>2016-01-20T17:36:04Z</time>
      </trkpt>
      <trkpt lat="48.6532" lon="2.72526">
        <ele>63</ele>
        <time>2016-01-20T17:38:04Z</time>
      </trkpt>
      <trkpt lat="48.65341" lon="2.72513">
        <ele>63</ele>
        <time>2016-01-20T17:40:04Z</time>
      </trkpt>
      <trkpt lat="48.65354" lon="2.72507">
        <ele>63</ele>
        <time>2016-01-20T17:42:04Z</time>
      </trkpt>
      <trkpt lat="48.65368" lon="2.72496">
        <ele>63</ele>
        <time>2016-01-20T17:44:04Z</time>
      </trkpt>
      <trkpt lat="48.65374" lon="2.72488">
        <ele>63</ele>
        <time>2016-01-20T17:46:04Z</time>
      </trkpt>
      <trkpt lat="48.65378" lon="2.72477">
        <ele>63</ele>
        <time>2016-01-20T17:48:04Z</time>
      </trkpt>
      <trkpt lat="48.6537" lon="2.72462">
        <ele>62</ele>
        <time>2016-01-20T17:50:04Z</time>
      </trkpt>
      <trkpt lat="48.65359" lon="2.72447">
        <ele>62</ele>
        <time>2016-01-20T17:52:04Z</time>
      </trkpt>
      <trkpt lat="48.65353" lon="2.72439">
        <ele>62</ele>
        <time>2016-01-20T17:54:04Z</time>
      </trkpt>
      <trkpt lat="48.65347" lon="2.72416">
        <ele>62</ele>
        <time>2016-01-20T17:56:04Z</time>
      </trkpt>
      <trkpt lat="48.65337" lon="2.72395">
        <ele>62</ele>
        <time>2016-01-20T17:58:04Z</time>
      </trkpt>
      <trkpt lat="48.65309" lon="2.72328">
        <ele>63</ele>
        <time>2016-01-20T18:00:04Z</time>
      </trkpt>
      <trkpt lat="48.65285" lon="2.7227">
        <ele>64</ele>
        <time>2016-01-20T18:02:04Z</time>
      </trkpt>
      <trkpt lat="48.65271" lon="2.72198">
        <ele>65</ele>
        <time>2016-01-20T18:04:04Z</time>
      </trkpt>
      <trkpt lat="48.65261" lon="2.72135">
        <ele>65</ele>
        <time>2016-01-20T18:06:04Z</time>
      </trkpt>
      <trkpt lat="48.65251" lon="2.72109">
        <ele>65</ele>
        <time>2016-01-20T18:08:04Z</time>
      </trkpt>
      <trkpt lat="48.65233" lon="2.72077">
        <ele>65</ele>
        <time>2016-01-20T18:10:04Z</time>
      </trkpt>
      <trkpt lat="48.65209" lon="2.72038">
        <ele>65</ele>
        <time>2016-01-20T18:12:04Z</time>
      </trkpt>
      <trkpt lat="48.65188" lon="2.71996">
        <ele>65</ele>
        <time>2016-01-20T18:14:04Z</time>
      </trkpt>
      <trkpt lat="48.65151" lon="2.71925">
        <ele>64</ele>
        <time>2016-01-20T18:16:04Z</time>
      </trkpt>
      <trkpt lat="48.65135" lon="2.71894">
        <ele>64</ele>
        <time>2016-01-20T18:18:04Z</time>
      </trkpt>
      <trkpt lat="48.65129" lon="2.71887">
        <ele>64</ele>
        <time>2016-01-20T18:20:04Z</time>
      </trkpt>
      <trkpt lat="48.65125" lon="2.71878">
        <ele>64</ele>
        <time>2016-01-20T18:22:04Z</time>
      </trkpt>
      <trkpt lat="48.65115" lon="2.71871">
        <ele>64</ele>
        <time>2016-01-20T18:24:04Z</time>
      </trkpt>
      <trkpt lat="48.64933" lon="2.71781">
        <ele>63</ele>
        <time>2016-01-20T18:26:04Z</time>
      </trkpt>
      <trkpt lat="48.64904" lon="2.71765">
        <ele>64</ele>
        <time>2016-01-20T18:28:04Z</time>
      </trkpt>
      <trkpt lat="48.64892" lon="2.71761">
        <ele>64</ele>
        <time>2016-01-20T18:30:04Z</time>
      </trkpt>
      <trkpt lat="48.64881" lon="2.71758">
        <ele>65</ele>
        <time>2016-01-20T18:32:04Z</time>
      </trkpt>
      <trkpt lat="48.64874" lon="2.71761">
        <ele>65</ele>
        <time>2016-01-20T18:34:04Z</time>
      </trkpt>
      <trkpt lat="48.64866" lon="2.71765">
        <ele>66</ele>
        <time>2016-01-20T18:36:04Z</time>
      </trkpt>
      <trkpt lat="48.6486" lon="2.71768">
        <ele>66</ele>
        <time>2016-01-20T18:38:04Z</time>
      </trkpt>
      <trkpt lat="48.64857" lon="2.71779">
        <ele>67</ele>
        <time>2016-01-20T18:40:04Z</time>
      </trkpt>
      <trkpt lat="48.64852" lon="2.7179">
        <ele>67</ele>
        <time>2016-01-20T18:42:04Z</time>
      </trkpt>
      <trkpt lat="48.64841" lon="2.71799">
        <ele>68</ele>
        <time>2016-01-20T18:44:04Z</time>
      </trkpt>
      <trkpt lat="48.64833" lon="2.71798">
        <ele>69</ele>
        <time>2016-01-20T18:46:04Z</time>
      </trkpt>
      <trkpt lat="48.64862" lon="2.71715">
        <ele>65</ele>
        <time>2016-01-20T18:48:04Z</time>
      </trkpt>
      <trkpt lat="48.64901" lon="2.7159">
        <ele>64</ele>
        <time>2016-01-20T18:50:04Z</time>
      </trkpt>
      <trkpt lat="48.64963" lon="2.71399">
        <ele>72</ele>
        <time>2016-01-20T18:52:04Z</time>
      </trkpt>
      <trkpt lat="48.64984" lon="2.71329">
        <ele>74</ele>
        <time>2016-01-20T18:54:04Z</time>
      </trkpt>
      <trkpt lat="48.65001" lon="2.71284">
        <ele>74</ele>
        <time>2016-01-20T18:56:04Z</time>
      </trkpt>
      <trkpt lat="48.65006" lon="2.71266">
        <ele>74</ele>
        <time>2016-01-20T18:58:04Z</time>
      </trkpt>
      <trkpt lat="48.65013" lon="2.71247">
        <ele>74</ele>
        <time>2016-01-20T19:00:04Z</time>
      </trkpt>
      <trkpt lat="48.65031" lon="2.71199">
        <ele>73</ele>
        <time>2016-01-20T19:02:04Z</time>
      </trkpt>
      <trkpt lat="48.65043" lon="2.71167">
        <ele>72</ele>
        <time>2016-01-20T19:04:04Z</time>
      </trkpt>
      <trkpt lat="48.65074" lon="2.71101">
        <ele>71</ele>
        <time>2016-01-20T19:06:04Z</time>
      </trkpt>
      <trkpt lat="48.65098" lon="2.71054">
        <ele>72</ele>
        <time>2016-01-20T19:08:04Z</time>
      </trkpt>
      <trkpt lat="48.65122" lon="2.71014">
        <ele>72</ele>
        <time>2016-01-20T19:10:04Z</time>
      </trkpt>
      <trkpt lat="48.65197" lon="2.70897">
        <ele>73</ele>
        <time>2016-01-20T19:12:04Z</time>
      </trkpt>
      <trkpt lat="48.65308" lon="2.70728">
        <ele>79</ele>
        <time>2016-01-20T19:14:04Z</time>
      </trkpt>
      <trkpt lat="48.65401" lon="2.70579">
        <ele>78</ele>
        <time>2016-01-20T19:16:04Z</time>
      </trkpt>
      <trkpt lat="48.65489" lon="2.70445">
        <ele>80</ele>
        <time>2016-01-20T19:18:04Z</time>
      </trkpt>
      <trkpt lat="48.65541" lon="2.70367">
        <ele>81</ele>
        <time>2016-01-20T19:20:04Z</time>
      </trkpt>
      <trkpt lat="48.65564" lon="2.70333">
        <ele>81</ele>
        <time>2016-01-20T19:22:04Z</time>
      </trkpt>
      <trkpt lat="48.65584" lon="2.70306">
        <ele>81</ele>
        <time>2016-01-20T19:24:04Z</time>
      </trkpt>
      <trkpt lat="48.65599" lon="2.70287">
        <ele>81</ele>
        <time>2016-01-20T19:26:04Z</time>
      </trkpt>
      <trkpt lat="48.65627" lon="2.70262">
        <ele>82</ele>
        <time>2016-01-20T19:28:04Z</time>
      </trkpt>
      <trkpt lat="48.6566" lon="2.70231">
        <ele>83</ele>
        <time>2016-01-20T19:30:04Z</time>
      </trkpt>
      <trkpt lat="48.65702" lon="2.70193">
        <ele>82</ele>
        <time>2016-01-20T19:32:04Z</time>
      </trkpt>
      <trkpt lat="48.6573" lon="2.70178">
        <ele>81</ele>
        <time>2016-01-20T19:34:04Z</time>
      </trkpt>
      <trkpt lat="48.65759" lon="2.70163">
        <ele>81</ele>
        <time>2016-01-20T19:36:04Z</time>
      </trkpt>
      <trkpt lat="48.6579" lon="2.70151">
        <ele>82</ele>
        <time>2016-01-20T19:38:04Z</time>
      </trkpt>
      <trkpt lat="48.65842" lon="2.70132">
        <ele>83</ele>
        <time>2016-01-20T19:40:04Z</time>
      </trkpt>
      <trkpt lat="48.659" lon="2.70119">
        <ele>82</ele>
        <time>2016-01-20T19:42:04Z</time>
      </trkpt>
      <trkpt lat="48.6594" lon="2.7011">
        <ele>81</ele>
        <time>2016-01-20T19:44:04Z</time>
      </trkpt>
      <trkpt lat="48.66018" lon="2.7009">
        <ele>82</ele>
        <time>2016-01-20T19:46:04Z</time>
      </trkpt>
      <trkpt lat="48.66105" lon="2.70064">
        <ele>84</ele>
        <time>2016-01-20T19:48:04Z</time>
      </trkpt>
      <trkpt lat="48.6618" lon="2.70044">
        <ele>85</ele>
        <time>2016-01-20T19:50:04Z</time>
      </trkpt>
      <trkpt lat="48.66226" lon="2.7003">
        <ele>86</ele>
        <time>2016-01-20T19:52:04Z</time>
      </trkpt>
      <trkpt lat="48.66273" lon="2.70016">
        <ele>87</ele>
        <time>2016-01-20T19:54:04Z</time>
      </trkpt>
      <trkpt lat="48.66309" lon="2.70002">
        <ele>85</ele>
        <time>2016-01-20T19:56:04Z</time>
      </trkpt>
      <trkpt lat="48.66336" lon="2.69988">
        <ele>84</ele>
        <time>2016-01-20T19:58:04Z</time>
      </trkpt>
      <trkpt lat="48.66358" lon="2.69982">
        <ele>84</ele>
        <time>2016-01-20T20:00:04Z</time>
      </trkpt>
      <trkpt lat="48.66378" lon="2.6998">
        <ele>84</ele>
        <time>2016-01-20T20:02:04Z</time>
      </trkpt>
      <trkpt lat="48.66393" lon="2.6998">
        <ele>84</ele>
        <time>2016-01-20T20:04:04Z</time>
      </trkpt>
      <trkpt lat="48.66414" lon="2.69969">
        <ele>84</ele>
        <time>2016-01-20T20:06:04Z</time>
      </trkpt>
      <trkpt lat="48.66433" lon="2.69957">
        <ele>83</ele>
        <time>2016-01-20T20:08:04Z</time>
      </trkpt>
      <trkpt lat="48.66484" lon="2.69921">
        <ele>82</ele>
        <time>2016-01-20T20:10:04Z</time>
      </trkpt>
      <trkpt lat="48.66501" lon="2.69906">
        <ele>82</ele>
        <time>2016-01-20T20:12:04Z</time>
      </trkpt>
      <trkpt lat="48.66515" lon="2.69906">
        <ele>82</ele>
        <time>2016-01-20T20:14:04Z</time>
      </trkpt>
      <trkpt lat="48.66538" lon="2.69888">
        <ele>83</ele>
        <time>2016-01-20T20:16:04Z</time>
      </trkpt>
      <trkpt lat="48.6656" lon="2.69871">
        <ele>83</ele>
        <time>2016-01-20T20:18:04Z</time>
      </trkpt>
      <trkpt lat="48.6657" lon="2.69854">
        <ele>83</ele>
        <time>2016-01-20T20:20:04Z</time>
      </trkpt>
      <trkpt lat="48.66588" lon="2.69835">
        <ele>84</ele>
        <time>2016-01-20T20:22:04Z</time>
      </trkpt>
      <trkpt lat="48.66607" lon="2.69811">
        <ele>83</ele>
        <time>2016-01-20T20:24:04Z</time>
      </trkpt>
      <trkpt lat="48.66626" lon="2.6979">
        <ele>83</ele>
        <time>2016-01-20T20:26:04Z</time>
      </trkpt>
      <trkpt lat="48.66648" lon="2.69756">
        <ele>83</ele>
        <time>2016-01-20T20:28:04Z</time>
      </trkpt>
      <trkpt lat="48.66674" lon="2.69716">
        <ele>83</ele>
        <time>2016-01-20T20:30:04Z</time>
      </trkpt>
      <trkpt lat="48.66692" lon="2.69681">
        <ele>83</ele>
        <time>2016-01-20T20:32:04Z</time>
      </trkpt>
      <trkpt lat="48.66696" lon="2.69662">
        <ele>83</ele>
        <time>2016-01-20T20:34:04Z</time>
      </trkpt>
      <trkpt lat="48.66684" lon="2.69652">
        <ele>83</ele>
        <time>2016-01-20T20:36:04Z</time>
      </trkpt>
      <trkpt lat="48.66673" lon="2.69651">
        <ele>83</ele>
        <time>2016-01-20T20:38:04Z</time>
      </trkpt>
      <trkpt lat="48.66662" lon="2.69645">
        <ele>82</ele>
        <time>2016-01-20T20:40:04Z</time>
      </trkpt>
      <trkpt lat="48.66655" lon="2.69643">
        <ele>82</ele>
        <time>2016-01-20T20:42:04Z</time>
      </trkpt>
      <trkpt lat="48.66643" lon="2.69628">
        <ele>81</ele>
        <time>2016-01-20T20:44:04Z</time>
      </trkpt>
      <trkpt lat="48.66621" lon="2.69617">
        <ele>80</ele>
        <time>2016-01-20T20:46:04Z</time>
      </trkpt>
      <trkpt lat="48.66587" lon="2.69601">
        <ele>77</ele>
        <time>2016-01-20T20:48:04Z</time>
      </trkpt>
      <trkpt lat="48.66564" lon="2.69594">
        <ele>78</ele>
        <time>2016-01-20T20:50:04Z</time>
      </trkpt>
      <trkpt lat="48.66544" lon="2.69592">
        <ele>78</ele>
        <time>2016-01-20T20:52:04Z</time>
      </trkpt>
      <trkpt lat="48.66512" lon="2.69592">
        <ele>79</ele>
        <time>2016-01-20T20:54:04Z</time>
      </trkpt>
      <trkpt lat="48.66472" lon="2.6959">
        <ele>78</ele>
        <time>2016-01-20T20:56:04Z</time>
      </trkpt>
      <trkpt lat="48.66452" lon="2.69582">
        <ele>78</ele>
        <time>2016-01-20T20:58:04Z</time>
      </trkpt>
      <trkpt lat="48.66435" lon="2.69576">
        <ele>78</ele>
        <time>2016-01-20T21:00:04Z</time>
      </trkpt>
      <trkpt lat="48.66423" lon="2.69574">
        <ele>78</ele>
        <time>2016-01-20T21:02:04Z</time>
      </trkpt>
      <trkpt lat="48.66401" lon="2.6958">
        <ele>78</ele>
        <time>2016-01-20T21:04:04Z</time>
      </trkpt>
      <trkpt lat="48.66359" lon="2.69599">
        <ele>77</ele>
        <time>2016-01-20T21:06:04Z</time>
      </trkpt>
      <trkpt lat="48.6632" lon="2.69613">
        <ele>76</ele>
        <time>2016-01-20T21:08:04Z</time>
      </trkpt>
      <trkpt lat="48.66297" lon="2.69619">
        <ele>76</ele>
        <time>2016-01-20T21:10:04Z</time>
      </trkpt>
      <trkpt lat="48.6626" lon="2.69626">
        <ele>76</ele>
        <time>2016-01-20T21:12:04Z</time>
      </trkpt>
      <trkpt lat="48.66193" lon="2.69639">
        <ele>76</ele>
        <time>2016-01-20T21:14:04Z</time>
      </trkpt>
      <trkpt lat="48.66127" lon="2.69656">
        <ele>76</ele>
        <time>2016-01-20T21:16:04Z</time>
      </trkpt>
      <trkpt lat="48.66073" lon="2.69674">
        <ele>77</ele>
        <time>2016-01-20T21:18:04Z</time>
      </trkpt>
      <trkpt lat="48.66025" lon="2.69688">
        <ele>78</ele>
        <time>2016-01-20T21:20:04Z</time>
      </trkpt>
      <trkpt lat="48.65945" lon="2.69707">
        <ele>79</ele>
        <time>2016-01-20T21:22:04Z</time>
      </trkpt>
      <trkpt lat="48.65894" lon="2.69714">
        <ele>80</ele>
        <time>2016-01-20T21:24:04Z</time>
      </trkpt>
      <trkpt lat="48.65873" lon="2.69717">
        <ele>80</ele>
        <time>2016-01-20T21:26:04Z</time>
      </trkpt>
      <trkpt lat="48.65851" lon="2.69719">
        <ele>80</ele>
        <time>2016-01-20T21:28:04Z</time>
      </trkpt>
      <trkpt lat="48.65838" lon="2.69718">
        <ele>80</ele>
        <time>2016-01-20T21:30:04Z</time>
      </trkpt>
      <trkpt lat="48.6581" lon="2.69725">
        <ele>80</ele>
        <time>2016-01-20T21:32:04Z</time>
      </trkpt>
      <trkpt lat="48.65784" lon="2.69732">
        <ele>80</ele>
        <time>2016-01-20T21:34:04Z</time>
      </trkpt>
      <trkpt lat="48.65752" lon="2.69741">
        <ele>80</ele>
        <time>2016-01-20T21:36:04Z</time>
      </trkpt>
      <trkpt lat="48.65724" lon="2.6975">
        <ele>80</ele>
        <time>2016-01-20T21:38:04Z</time>
      </trkpt>
      <trkpt lat="48.657" lon="2.69757">
        <ele>79</ele>
        <time>2016-01-20T21:40:04Z</time>
      </trkpt>
      <trkpt lat="48.65679" lon="2.69762">
        <ele>79</ele>
        <time>2016-01-20T21:42:04Z</time>
      </trkpt>
      <trkpt lat="48.65658" lon="2.69764">
        <ele>77</ele>
        <time>2016-01-20T21:44:04Z</time>
      </trkpt>
      <trkpt lat="48.65648" lon="2.69768">
        <ele>76</ele>
        <time>2016-01-20T21:46:04Z</time>
      </trkpt>
      <trkpt lat="48.65629" lon="2.6978">
        <ele>73</ele>
        <time>2016-01-20T21:48:04Z</time>
      </trkpt>
      <trkpt lat="48.65609" lon="2.69793">
        <ele>70</ele>
        <time>2016-01-20T21:50:04Z</time>
      </trkpt>
      <trkpt lat="48.65591" lon="2.69807">
        <ele>68</ele>
        <time>2016-01-20T21:52:04Z</time>
      </trkpt>
      <trkpt lat="48.65586" lon="2.69816">
        <ele>67</ele>
        <time>2016-01-20T21:54:04Z</time>
      </trkpt>
      <trkpt lat="48.6558" lon="2.69836">
        <ele>66</ele>
        <time>2016-01-20T21:56:04Z</time>
      </trkpt>
      <trkpt lat="48.65578" lon="2.69865">
        <ele>65</ele>
        <time>2016-01-20T21:58:04Z</time>
      </trkpt>
      <trkpt lat="48.65577" lon="2.69889">
        <ele>65</ele>
        <time>2016-01-20T22:00:04Z</time>
      </trkpt>
      <trkpt lat="48.65572" lon="2.69907">
        <ele>65</ele>
        <time>2016-01-20T22:02:04Z</time>
      </trkpt>
      <trkpt lat="48.65568" lon="2.69936">
        <ele>64</ele>
        <time>2016-01-20T22:04:04Z</time>
      </trkpt>
      <trkpt lat="48.65564" lon="2.69962">
        <ele>64</ele>
        <time>2016-01-20T22:06:04Z</time>
      </trkpt>
      <trkpt lat="48.65562" lon="2.69989">
        <ele>63</ele>
        <time>2016-01-20T22:08:04Z</time>
      </trkpt>
      <trkpt lat="48.65522" lon="2.69974">
        <ele>62</ele>
        <time>2016-01-20T22:10:04Z</time>
      </trkpt>
      <trkpt lat="48.65502" lon="2.69965">
        <ele>61</ele>
        <time>2016-01-20T22:12:04Z</time>
      </trkpt>
      <trkpt lat="48.6548" lon="2.69955">
        <ele>62</ele>
        <time>2016-01-20T22:14:04Z</time>
      </trkpt>
      <trkpt lat="48.65457" lon="2.69936">
        <ele>62</ele>
        <time>2016-01-20T22:16:04Z</time>
      </trkpt>
      <trkpt lat="48.65435" lon="2.69927">
        <ele>63</ele>
        <time>2016-01-20T22:18:04Z</time>
      </trkpt>
      <trkpt lat="48.65416" lon="2.69919">
        <ele>63</ele>
        <time>2016-01-20T22:20:04Z</time>
      </trkpt>
      <trkpt lat="48.65401" lon="2.69912">
        <ele>64</ele>
        <time>2016-01-20T22:22:04Z</time>
      </trkpt>
      <trkpt lat="48.65389" lon="2.69903">
        <ele>64</ele>
        <time>2016-01-20T22:24:04Z</time>
      </trkpt>
      <trkpt lat="48.65374" lon="2.69899">
        <ele>65</ele>
        <time>2016-01-20T22:26:04Z</time>
      </trkpt>
      <trkpt lat="48.65357" lon="2.69897">
        <ele>65</ele>
        <time>2016-01-20T22:28:04Z</time>
      </trkpt>
      <trkpt lat="48.65335" lon="2.69896">
        <ele>66</ele>
        <time>2016-01-20T22:30:04Z</time>
      </trkpt>
      <trkpt lat="48.65323" lon="2.69897">
        <ele>66</ele>
        <time>2016-01-20T22:32:04Z</time>
      </trkpt>
      <trkpt lat="48.6531" lon="2.69899">
        <ele>66</ele>
        <time>2016-01-20T22:34:04Z</time>
      </trkpt>
      <trkpt lat="48.653" lon="2.69903">
        <ele>66</ele>
        <time>2016-01-20T22:36:04Z</time>
      </trkpt>
      <trkpt lat="48.65285" lon="2.6991">
        <ele>66</ele>
        <time>2016-01-20T22:38:04Z</time>
      </trkpt>
      <trkpt lat="48.65275" lon="2.69922">
        <ele>66</ele>
        <time>2016-01-20T22:40:04Z</time>
      </trkpt>
      <trkpt lat="48.65262" lon="2.69943">
        <ele>66</ele>
        <time>2016-01-20T22:42:04Z</time>
      </trkpt>
      <trkpt lat="48.65256" lon="2.69951">
        <ele>66</ele>
        <time>2016-01-20T22:44:04Z</time>
      </trkpt>
      <trkpt lat="48.65248" lon="2.69948">
        <ele>66</ele>
        <time>2016-01-20T22:46:04Z</time>
      </trkpt>
      <trkpt lat="48.65241" lon="2.69948">
        <ele>66</ele>
        <time>2016-01-20T22:48:04Z</time>
      </trkpt>
      <trkpt lat="48.65224" lon="2.69954">
        <ele>67</ele>
        <time>2016-01-20T22:50:04Z</time>
      </trkpt>
      <trkpt lat="48.65211" lon="2.69952">
        <ele>67</ele>
        <time>2016-01-20T22:52:04Z</time>
      </trkpt>
    </trkseg>
  </trk>
</gpx>